< < Back
Terminal Aerodrome Forecast


Current Version              Previous Versions:   1  2  3  4  5  6  7  8  9  

Terminal Aerodrome Forecast

135
FTUS42 KMLB 230500
TAFDAB
TAF
KDAB 230522Z 2306/2406 04008KT P6SM SCT250
     FM230900 02006KT P6SM SCT250
     FM231400 04011KT P6SM SCT250
     FM240000 02004KT P6SM FEW250=



Latest METAR

240
SAUS80 KWBC 231600 RRB
MTRDAB
METAR KDAB 231553Z 05012KT 10SM FEW046 25/13 A3004 RMK AO2 SLP171
T02500133


USA.gov is the U.S. government's official web portal to all federal, state and local government web resources and services.